Goree, Texas
Current Conditions -  °F | °C
As of 3:17 PM on Wednesday 26 Nov 2014 (Local Time) from KF05 Reporting Station
Clear Clear  
Wind Chill: 61°   Ceiling: Unl
Heat Index: 61°   Visibility: 10mi
Dew Point: 28°   Wind: 13mph
Humidity: 29%   Direction: 350°N
Pressure: 30.26"   Gusts: 16mph
Location:  33.47°N, 99.52°W
Report Text: KF05 262117Z AUTO 35011G14KT 10SM CLR 16/M02 A3026 RMK AO2
Loading
Personal Weather Stations






























Interactive Weather Map New forecast layout! Learn more

10-Day Weather Forecast

Advertisements
Track Severe Weather on mobile